Time;durP1;ratioP1;P1;durP2;ratioP2;P2;SDS_P1;SDS_P2;PMS_P1;PMS_P2;Temp;Humidity;BMP_temperature;BMP_pressure;BME280_temperature;BME280_humidity;BME280_pressure;Samples;Min_cycle;Max_cycle;Signal;HPM_P1;HPM_P2
2022/04/01 00:01:20;;;;;;;4.60;3.97;;;4.90;1.00;;;;;;4947014;28;20301;-81
2022/04/01 00:03:52;;;;;;;6.38;4.38;;;4.80;1.00;;;;;;4947731;28;20285;-81
2022/04/01 00:06:19;;;;;;;7.35;4.95;;;4.80;1.00;;;;;;4945662;28;20241;-80
2022/04/01 00:08:53;;;;;;;4.60;3.72;;;4.70;1.00;;;;;;4950269;28;20248;-81
2022/04/01 00:11:19;;;;;;;7.72;4.45;;;4.70;1.00;;;;;;4957204;28;20237;-80
2022/04/01 00:13:50;;;;;;;7.20;4.05;;;4.70;1.00;;;;;;4953090;28;20221;-81
2022/04/01 00:16:17;;;;;;;6.53;4.07;;;4.70;1.00;;;;;;4950169;28;20241;-81
2022/04/01 00:18:48;;;;;;;6.43;3.83;;;4.70;1.00;;;;;;4947759;28;20241;-82
2022/04/01 00:21:16;;;;;;;12.25;5.05;;;4.70;1.00;;;;;;4947744;28;20836;-82
2022/04/01 00:23:43;;;;;;;8.07;4.45;;;4.60;1.00;;;;;;4948876;28;21470;-81
2022/04/01 00:26:10;;;;;;;5.43;4.15;;;4.50;1.00;;;;;;4949725;28;20260;-80
2022/04/01 00:28:40;;;;;;;5.63;4.25;;;4.50;1.00;;;;;;4949730;28;20236;-82
2022/04/01 00:31:12;;;;;;;6.38;4.72;;;4.40;1.00;;;;;;4945528;28;22388;-81
2022/04/01 00:33:40;;;;;;;4.78;3.63;;;4.40;1.00;;;;;;4945219;28;20268;-80
2022/04/01 00:36:10;;;;;;;5.00;3.63;;;4.40;1.00;;;;;;4947469;28;20244;-81
2022/04/01 00:38:41;;;;;;;7.18;4.43;;;4.40;1.00;;;;;;4947054;28;20233;-81
2022/04/01 00:41:12;;;;;;;6.32;4.30;;;4.30;1.00;;;;;;4948483;28;20245;-80
2022/04/01 00:43:40;;;;;;;7.60;5.03;;;4.20;1.00;;;;;;4948243;28;20253;-81
2022/04/01 00:46:14;;;;;;;4.85;3.60;;;4.20;1.00;;;;;;4947077;28;20241;-80
2022/04/01 00:48:42;;;;;;;5.18;3.90;;;4.20;1.00;;;;;;4938276;28;20236;-82
2022/04/01 00:51:12;;;;;;;5.95;4.22;;;4.20;1.00;;;;;;4951394;28;20244;-82
2022/04/01 00:53:40;;;;;;;5.47;4.32;;;4.20;1.00;;;;;;4952887;28;20241;-81
2022/04/01 00:56:12;;;;;;;6.38;4.28;;;4.10;1.00;;;;;;4949138;28;20236;-81
2022/04/01 00:58:40;;;;;;;6.82;4.05;;;4.20;1.00;;;;;;4945241;28;20248;-82
2022/04/01 01:01:21;;;;;;;4.85;4.00;;;4.20;1.00;;;;;;4949374;28;20292;-81
2022/04/01 01:03:51;;;;;;;6.53;3.53;;;4.20;1.00;;;;;;4949634;28;20249;-82
2022/04/01 01:06:22;;;;;;;6.10;4.15;;;4.20;1.00;;;;;;4950987;28;20225;-81
2022/04/01 01:08:53;;;;;;;6.22;3.40;;;4.10;1.00;;;;;;4948232;28;20252;-83
2022/04/01 01:11:22;;;;;;;5.80;4.00;;;4.00;1.00;;;;;;4951196;28;20229;-82
2022/04/01 01:13:51;;;;;;;6.18;3.85;;;4.00;1.00;;;;;;4946674;28;20265;-80
2022/04/01 01:16:19;;;;;;;5.10;4.30;;;3.90;1.00;;;;;;4953471;28;20265;-81
2022/04/01 01:19:01;;;;;;;5.35;3.67;;;3.90;1.00;;;;;;4937884;28;20257;-81
2022/04/01 01:21:30;;;;;;;6.00;4.18;;;3.90;1.00;;;;;;4956351;28;20268;-81
2022/04/01 01:24:05;;;;;;;4.90;3.90;;;3.90;1.00;;;;;;4951631;28;20225;-81
2022/04/01 01:26:40;;;;;;;4.90;3.83;;;3.90;1.00;;;;;;4956212;28;20244;-81
2022/04/01 01:29:14;;;;;;;4.72;4.00;;;3.90;1.00;;;;;;4960837;28;20246;-79
2022/04/01 01:31:43;;;;;;;8.43;4.10;;;3.80;1.00;;;;;;4971900;28;20248;-80
2022/04/01 01:34:11;;;;;;;6.72;4.40;;;3.80;1.00;;;;;;4969529;28;20608;-80
2022/04/01 01:36:40;;;;;;;5.90;4.05;;;3.80;1.00;;;;;;4957145;28;20427;-79
2022/04/01 01:39:11;;;;;;;7.80;4.13;;;3.80;1.00;;;;;;4955533;28;20403;-80
2022/04/01 01:41:40;;;;;;;4.93;3.70;;;3.80;1.00;;;;;;4960742;28;20237;-80
2022/04/01 01:44:11;;;;;;;5.22;4.40;;;3.80;1.00;;;;;;4948654;28;20240;-80
2022/04/01 01:46:38;;;;;;;6.95;4.07;;;3.70;1.00;;;;;;4947670;28;20241;-80
2022/04/01 01:49:11;;;;;;;4.72;3.65;;;3.70;1.00;;;;;;4951756;28;20339;-80
2022/04/01 01:57:13;;;;;;;4.80;3.45;;;3.80;1.00;;;;;;4950646;28;20233;-80
2022/04/01 01:59:40;;;;;;;9.00;4.50;;;3.80;1.00;;;;;;4946932;28;20243;-80
2022/04/01 02:02:08;;;;;;;7.07;4.35;;;3.70;1.00;;;;;;4953553;28;20301;-80
2022/04/01 02:04:39;;;;;;;5.07;3.80;;;3.70;1.00;;;;;;4951083;28;20296;-81
2022/04/01 02:07:12;;;;;;;5.05;4.50;;;3.60;1.00;;;;;;4944736;28;20344;-81
2022/04/01 02:09:40;;;;;;;6.13;4.93;;;3.60;1.00;;;;;;4950570;28;20260;-80
2022/04/01 02:12:11;;;;;;;7.60;4.10;;;3.60;1.00;;;;;;4948830;28;20228;-82
2022/04/01 02:14:38;;;;;;;5.13;3.67;;;3.60;1.00;;;;;;4951104;28;20295;-80
2022/04/01 02:17:14;;;;;;;8.38;4.00;;;3.60;1.00;;;;;;4950665;28;20308;-80
2022/04/01 02:19:41;;;;;;;5.18;3.58;;;3.50;1.00;;;;;;4952421;28;20299;-82
2022/04/01 02:22:08;;;;;;;6.70;4.70;;;3.60;1.00;;;;;;4950914;28;20591;-82
2022/04/01 02:24:36;;;;;;;6.13;4.30;;;3.50;1.00;;;;;;4949263;28;20248;-82
2022/04/01 02:27:03;;;;;;;5.32;4.25;;;3.50;1.00;;;;;;4945839;28;20240;-82
2022/04/01 02:29:35;;;;;;;8.00;4.88;;;3.40;1.00;;;;;;4951252;28;20309;-81
2022/04/01 02:32:02;;;;;;;5.70;4.43;;;3.40;1.00;;;;;;4952906;23;20324;-82
2022/04/01 02:34:32;;;;;;;7.50;4.95;;;3.40;1.00;;;;;;4924877;28;20338;-82
2022/04/01 02:37:14;;;;;;;5.78;4.25;;;3.30;1.00;;;;;;4931889;28;22174;-82
2022/04/01 02:39:40;;;;;;;6.72;4.57;;;3.30;1.00;;;;;;4929855;28;20237;-81
2022/04/01 02:42:08;;;;;;;4.43;3.55;;;3.30;1.00;;;;;;4930839;28;20252;-82
2022/04/01 02:44:52;;;;;;;7.15;4.72;;;3.20;1.00;;;;;;4938509;28;20250;-81
2022/04/01 02:47:21;;;;;;;6.68;4.43;;;3.20;1.00;;;;;;4950788;28;20333;-82
2022/04/01 02:49:51;;;;;;;6.72;4.78;;;3.20;1.00;;;;;;4949796;28;20289;-81
2022/04/01 02:52:20;;;;;;;5.97;4.70;;;3.20;1.00;;;;;;4953078;28;20238;-81
2022/04/01 02:54:47;;;;;;;5.57;4.20;;;3.10;1.00;;;;;;4952116;28;20213;-80
2022/04/01 02:57:14;;;;;;;6.90;4.57;;;3.10;1.00;;;;;;4947658;28;20225;-80
2022/04/01 02:59:42;;;;;;;5.20;4.68;;;3.10;1.00;;;;;;4953797;28;20233;-80
2022/04/01 03:02:11;;;;;;;6.82;4.32;;;3.10;1.00;;;;;;4962265;28;20234;-80
2022/04/01 03:04:42;;;;;;;6.80;4.20;;;3.10;1.00;;;;;;4954117;28;20236;-80
2022/04/01 03:07:11;;;;;;;5.45;4.50;;;3.10;1.00;;;;;;4953283;28;20225;-80
2022/04/01 03:09:41;;;;;;;8.68;4.50;;;3.10;1.00;;;;;;4944616;28;20214;-81
2022/04/01 03:12:11;;;;;;;4.30;3.90;;;3.10;1.00;;;;;;4955347;28;20284;-80
2022/04/01 03:14:40;;;;;;;8.52;5.25;;;3.10;1.00;;;;;;4954717;28;20245;-79
2022/04/01 03:17:12;;;;;;;5.43;4.03;;;3.10;1.00;;;;;;4956817;28;20272;-79
2022/04/01 03:19:41;;;;;;;7.60;4.93;;;3.00;1.00;;;;;;4962144;28;20230;-81
2022/04/01 03:22:14;;;;;;;6.43;4.93;;;3.00;1.00;;;;;;4959426;28;20236;-81
2022/04/01 03:24:42;;;;;;;5.30;4.22;;;3.00;1.00;;;;;;4950038;28;20299;-80
2022/04/01 03:27:14;;;;;;;6.47;4.32;;;2.90;1.00;;;;;;4954584;28;20247;-80
2022/04/01 03:29:40;;;;;;;9.75;4.85;;;2.90;1.00;;;;;;4949342;28;20278;-79
2022/04/01 03:32:38;;;;;;;5.18;4.68;;;2.90;1.00;;;;;;4952232;28;20230;-80
2022/04/01 03:35:13;;;;;;;5.97;4.40;;;2.80;1.00;;;;;;4952939;28;20223;-79
2022/04/01 03:37:40;;;;;;;5.28;4.53;;;2.80;1.00;;;;;;4948533;28;20221;-81
2022/04/01 03:40:16;;;;;;;8.63;4.63;;;2.80;1.00;;;;;;4951224;28;20229;-80
2022/04/01 03:42:44;;;;;;;7.28;5.35;;;2.80;1.00;;;;;;4948333;28;20241;-80
2022/04/01 03:45:12;;;;;;;7.05;4.97;;;2.80;1.00;;;;;;4956296;28;20241;-81
2022/04/01 03:47:59;;;;;;;10.40;5.45;;;2.70;1.00;;;;;;4951345;28;20301;-80
2022/04/01 03:50:33;;;;;;;7.25;5.22;;;2.80;1.00;;;;;;4950516;28;20245;-79
2022/04/01 03:53:04;;;;;;;7.93;5.10;;;2.70;1.00;;;;;;4953381;28;20228;-81
2022/04/01 03:55:33;;;;;;;7.05;4.90;;;2.70;1.00;;;;;;4940651;28;20218;-79
2022/04/01 03:58:06;;;;;;;9.50;4.60;;;2.70;1.00;;;;;;4946435;28;20225;-79
2022/04/01 04:00:33;;;;;;;6.07;5.47;;;2.60;1.00;;;;;;4934201;28;21050;-80
2022/04/01 04:03:11;;;;;;;17.98;5.65;;;2.60;1.00;;;;;;4926502;28;21046;-80
2022/04/01 04:05:38;;;;;;;7.50;5.63;;;2.60;1.00;;;;;;4935820;28;20423;-81
2022/04/01 04:08:11;;;;;;;5.40;4.85;;;2.60;1.00;;;;;;4933049;28;20321;-80
2022/04/01 04:10:42;;;;;;;6.43;4.60;;;2.60;1.00;;;;;;4935189;28;20251;-80
2022/04/01 04:13:12;;;;;;;8.40;4.70;;;2.60;1.00;;;;;;4922386;28;20721;-80
2022/04/01 04:15:44;;;;;;;5.65;4.65;;;2.50;1.00;;;;;;4941254;28;20273;-80
2022/04/01 04:18:21;;;;;;;6.22;5.07;;;2.60;1.00;;;;;;4924523;28;20273;-80
2022/04/01 04:21:05;;;;;;;6.60;5.00;;;2.50;1.00;;;;;;4920051;28;20245;-80
2022/04/01 04:23:41;;;;;;;7.93;5.00;;;2.50;1.00;;;;;;4924286;28;20340;-80
2022/04/01 04:26:13;;;;;;;8.40;4.97;;;2.50;1.00;;;;;;4935129;28;20249;-80
2022/04/01 04:29:01;;;;;;;8.38;4.50;;;2.50;1.00;;;;;;4924528;28;20297;-81
2022/04/01 04:32:03;;;;;;;6.25;4.80;;;2.40;1.00;;;;;;4932301;28;20371;-80
2022/04/01 04:34:39;;;;;;;6.82;4.65;;;2.50;1.00;;;;;;4959713;23;20285;-81
2022/04/01 04:37:12;;;;;;;5.80;4.63;;;2.40;1.00;;;;;;4958187;28;20249;-79
2022/04/01 04:39:44;;;;;;;8.05;4.80;;;2.40;1.00;;;;;;4962367;28;20245;-82
2022/04/01 04:42:21;;;;;;;8.20;4.85;;;2.40;1.00;;;;;;4969288;28;20221;-80
2022/04/01 04:44:54;;;;;;;4.85;4.45;;;2.40;1.00;;;;;;4974796;28;20224;-83
2022/04/01 04:47:41;;;;;;;9.45;4.60;;;2.40;1.00;;;;;;4967438;28;20292;-80
2022/04/01 04:50:33;;;;;;;6.78;4.25;;;2.40;1.00;;;;;;4949480;28;20241;-79
2022/04/01 04:53:03;;;;;;;7.55;4.80;;;2.30;1.00;;;;;;4967836;28;20280;-80
2022/04/01 04:55:34;;;;;;;6.15;4.13;;;2.30;1.00;;;;;;4963828;28;20331;-80
2022/04/01 05:01:35;;;;;;;5.47;4.28;;;2.30;1.00;;;;;;4957236;28;20275;-80
2022/04/01 05:04:25;;;;;;;10.07;5.15;;;2.40;1.00;;;;;;4964038;28;21073;-80
2022/04/01 05:07:13;;;;;;;5.25;4.10;;;2.40;1.00;;;;;;4960233;28;20708;-80
2022/04/01 05:09:53;;;;;;;7.72;5.93;;;2.50;1.00;;;;;;4945341;28;20335;-81
2022/04/01 05:12:41;;;;;;;5.35;4.03;;;2.40;1.00;;;;;;4951016;28;20292;-82
2022/04/01 05:15:21;;;;;;;6.85;5.30;;;2.50;1.00;;;;;;4943791;28;20357;-80
2022/04/01 05:18:02;;;;;;;6.65;3.97;;;2.50;1.00;;;;;;4959482;28;20244;-79
2022/04/01 05:20:33;;;;;;;7.53;5.28;;;2.50;1.00;;;;;;4960221;28;20301;-80
2022/04/01 05:23:16;;;;;;;5.97;4.20;;;2.50;1.00;;;;;;4961627;28;20237;-81
2022/04/01 05:25:44;;;;;;;5.53;4.13;;;2.50;1.00;;;;;;4956016;28;20324;-79
2022/04/01 05:28:23;;;;;;;124.53;44.00;;;2.50;1.00;;;;;;4956979;28;20229;-81
2022/04/01 05:31:04;;;;;;;6.20;4.57;;;2.50;1.00;;;;;;4962332;28;20308;-80
2022/04/01 05:33:52;;;;;;;8.52;4.40;;;2.50;1.00;;;;;;4969769;28;20224;-80
2022/04/01 05:36:22;;;;;;;5.80;4.22;;;2.50;1.00;;;;;;4955636;28;21179;-80
2022/04/01 05:39:04;;;;;;;7.53;3.90;;;2.60;1.00;;;;;;4961528;28;20305;-77
2022/04/01 05:41:35;;;;;;;7.45;4.50;;;2.60;1.00;;;;;;4961728;28;20223;-77
2022/04/01 05:44:03;;;;;;;6.47;4.65;;;2.50;1.00;;;;;;4944021;28;20237;-77
2022/04/01 05:46:35;;;;;;;26.80;6.20;;;2.50;1.00;;;;;;4943835;28;20362;-77
2022/04/01 05:49:02;;;;;;;8.50;4.20;;;2.60;1.00;;;;;;4944598;28;20245;-77
2022/04/01 05:51:39;;;;;;;8.55;4.38;;;2.60;1.00;;;;;;4953451;28;20252;-77
2022/04/01 05:54:19;;;;;;;10.63;6.60;;;2.60;1.00;;;;;;4958855;28;20245;-76
2022/04/01 05:56:53;;;;;;;8.90;4.10;;;2.70;1.00;;;;;;4962197;28;20245;-77
2022/04/01 05:59:22;;;;;;;9.93;4.13;;;2.60;1.00;;;;;;4968396;28;20228;-76
2022/04/01 06:02:12;;;;;;;8.82;4.60;;;2.70;1.00;;;;;;4954372;28;20217;-77
2022/04/01 06:05:03;;;;;;;5.15;4.07;;;2.60;1.00;;;;;;4944059;28;20359;-77
2022/04/01 06:07:38;;;;;;;6.05;3.60;;;2.60;1.00;;;;;;4952726;28;20229;-77
2022/04/01 06:10:15;;;;;;;6.50;4.43;;;2.60;1.00;;;;;;4952030;28;20269;-77
2022/04/01 06:12:57;;;;;;;7.55;3.72;;;2.70;1.00;;;;;;4949723;28;20248;-77
2022/04/01 06:15:33;;;;;;;5.30;3.90;;;2.70;1.00;;;;;;4961679;28;20247;-78
2022/04/01 06:18:10;;;;;;;9.00;3.92;;;2.70;1.00;;;;;;4954098;28;20251;-77
2022/04/01 06:20:40;;;;;;;7.20;4.47;;;2.70;1.00;;;;;;4958440;28;20237;-78
2022/04/01 06:23:12;;;;;;;8.50;4.70;;;2.80;1.00;;;;;;4955667;28;20241;-77
2022/04/01 06:25:49;;;;;;;9.32;3.83;;;2.80;1.00;;;;;;4942387;28;20256;-76
2022/04/01 06:28:24;;;;;;;5.75;4.40;;;3.00;1.00;;;;;;4929052;28;20291;-77
2022/04/01 06:30:51;;;;;;;7.18;4.18;;;3.10;1.00;;;;;;4938244;28;20256;-77
2022/04/01 06:33:30;;;;;;;9.07;4.30;;;3.20;1.00;;;;;;4950299;28;20932;-76
2022/04/01 06:36:00;;;;;;;8.90;4.22;;;3.20;1.00;;;;;;4954459;28;20239;-77
2022/04/01 06:38:40;;;;;;;6.57;3.97;;;3.10;1.00;;;;;;4952687;28;20268;-77
2022/04/01 06:41:13;;;;;;;5.32;3.88;;;3.10;1.00;;;;;;4930232;28;20241;-78
2022/04/01 06:43:43;;;;;;;6.63;3.78;;;3.20;1.00;;;;;;4935169;28;20354;-77
2022/04/01 06:46:12;;;;;;;9.18;4.20;;;3.10;1.00;;;;;;4953385;28;21282;-77
2022/04/01 06:48:41;;;;;;;4.95;3.67;;;3.20;1.00;;;;;;4944609;28;20269;-79
2022/04/01 06:51:16;;;;;;;6.35;3.92;;;3.20;1.00;;;;;;4949763;28;20838;-77
2022/04/01 06:53:42;;;;;;;4.63;3.65;;;3.30;1.00;;;;;;4944871;28;20236;-77
2022/04/01 06:56:13;;;;;;;7.78;3.83;;;3.50;1.00;;;;;;4951346;28;20236;-78
2022/04/01 06:58:41;;;;;;;6.35;4.03;;;3.60;1.00;;;;;;4953838;28;21324;-78
2022/04/01 07:01:10;;;;;;;5.18;3.30;;;3.70;1.00;;;;;;4954163;28;20240;-75
2022/04/01 07:03:42;;;;;;;7.78;3.42;;;3.70;1.00;;;;;;4938589;28;20259;-76
2022/04/01 07:06:09;;;;;;;13.60;4.20;;;3.70;1.00;;;;;;4954213;28;20673;-76
2022/04/01 07:08:36;;;;;;;4.90;3.28;;;3.90;1.00;;;;;;4940976;28;21115;-76
2022/04/01 07:11:03;;;;;;;8.65;3.95;;;4.00;1.00;;;;;;4951262;28;20340;-75
2022/04/01 07:13:33;;;;;;;6.05;3.38;;;4.10;1.00;;;;;;4954374;28;20257;-76
2022/04/01 07:16:00;;;;;;;11.25;3.45;;;4.20;1.00;;;;;;4946518;28;20237;-76
2022/04/01 07:18:27;;;;;;;6.65;3.40;;;4.30;1.00;;;;;;4936898;28;20251;-76
2022/04/01 07:20:54;;;;;;;4.63;3.33;;;4.40;1.00;;;;;;4942309;28;20264;-76
2022/04/01 07:23:20;;;;;;;6.45;3.33;;;4.50;1.00;;;;;;4949290;28;20247;-76
2022/04/01 07:25:47;;;;;;;5.35;3.75;;;4.70;1.00;;;;;;4946614;28;20248;-77
2022/04/01 07:28:13;;;;;;;6.57;4.43;;;4.80;1.00;;;;;;4942614;28;20368;-77
2022/04/01 07:30:41;;;;;;;5.50;3.85;;;4.80;1.00;;;;;;4950190;28;20241;-76
2022/04/01 07:33:10;;;;;;;5.50;4.22;;;5.00;1.00;;;;;;4945405;28;20728;-77
2022/04/01 07:35:43;;;;;;;9.15;3.97;;;4.90;1.00;;;;;;4946609;28;20269;-76
2022/04/01 07:38:11;;;;;;;5.22;3.35;;;5.00;1.00;;;;;;4946760;28;20323;-77
2022/04/01 07:40:42;;;;;;;5.00;3.75;;;5.20;1.00;;;;;;4953512;28;20239;-77
2022/04/01 07:43:12;;;;;;;7.25;3.67;;;5.50;1.00;;;;;;4945757;28;20285;-77
2022/04/01 07:45:43;;;;;;;7.82;3.20;;;5.70;1.00;;;;;;4941877;28;20244;-76
2022/04/01 07:48:10;;;;;;;8.68;3.90;;;5.80;1.00;;;;;;4948726;28;20272;-77
2022/04/01 07:50:42;;;;;;;4.55;3.40;;;5.90;1.00;;;;;;4943996;28;21126;-76
2022/04/01 07:53:09;;;;;;;6.32;4.32;;;6.00;1.00;;;;;;4950909;28;20236;-76
2022/04/01 07:55:37;;;;;;;5.13;3.50;;;6.00;1.00;;;;;;4958181;28;20271;-76
2022/04/01 07:58:32;;;;;;;5.78;3.80;;;5.90;1.00;;;;;;4951434;28;20508;-76
2022/04/01 08:01:03;;;;;;;6.85;3.80;;;6.00;1.00;;;;;;4860356;29;20243;-75
2022/04/01 08:03:33;;;;;;;6.38;4.20;;;6.20;1.00;;;;;;4948890;28;20237;-76
2022/04/01 08:06:13;;;;;;;7.10;4.50;;;6.40;1.00;;;;;;4954038;28;20399;-78
2022/04/01 08:08:55;;;;;;;;;;;;;;;;;;;;;
2022/04/01 08:11:24;;;;;;;10.68;4.18;;;6.50;1.00;;;;;;4945585;28;39871;-76
2022/04/01 08:13:51;;;;;;;5.90;3.35;;;6.60;1.00;;;;;;4925073;28;20257;-77
2022/04/01 08:16:22;;;;;;;8.77;4.18;;;6.90;1.00;;;;;;4949321;28;20240;-78
2022/04/01 08:18:53;;;;;;;5.97;3.38;;;6.90;1.00;;;;;;4953113;28;20245;-76
2022/04/01 08:21:20;;;;;;;3.70;3.00;;;6.90;1.00;;;;;;4957918;28;21138;-78
2022/04/01 08:23:47;;;;;;;5.43;3.75;;;7.10;1.00;;;;;;4933157;28;20452;-76
2022/04/01 08:26:14;;;;;;;4.70;3.13;;;7.20;1.00;;;;;;4955403;28;20968;-76
2022/04/01 08:28:42;;;;;;;4.15;2.72;;;7.40;1.00;;;;;;4940569;28;20241;-77
2022/04/01 08:31:13;;;;;;;6.32;2.90;;;7.40;1.00;;;;;;4951263;28;20271;-77
2022/04/01 08:33:41;;;;;;;5.05;2.63;;;7.50;1.00;;;;;;4937935;28;20963;-77
2022/04/01 08:36:12;;;;;;;5.18;3.22;;;7.50;1.00;;;;;;4949864;28;20236;-77
2022/04/01 08:38:40;;;;;;;7.10;2.90;;;7.50;1.00;;;;;;4953222;28;20244;-78
2022/04/01 08:41:18;;;;;;;3.08;2.45;;;7.40;1.00;;;;;;4947650;28;20240;-76
2022/04/01 08:43:47;;;;;;;7.25;4.10;;;7.40;1.00;;;;;;4943774;28;20320;-77
2022/04/01 08:46:14;;;;;;;5.25;3.00;;;7.50;1.00;;;;;;4951835;28;20237;-76
2022/04/01 08:48:43;;;;;;;8.27;3.45;;;7.60;1.00;;;;;;4950493;28;20236;-78
2022/04/01 08:51:14;;;;;;;11.60;3.28;;;7.60;1.00;;;;;;4953601;28;20244;-77
2022/04/01 08:53:44;;;;;;;5.93;3.00;;;7.40;1.00;;;;;;4949617;28;20249;-77
2022/04/01 08:56:18;;;;;;;11.77;3.03;;;7.40;1.00;;;;;;4950317;28;20247;-76
2022/04/01 08:58:45;;;;;;;4.50;2.60;;;7.60;1.00;;;;;;4947257;28;20236;-77
2022/04/01 09:01:13;;;;;;;5.55;3.30;;;7.60;1.00;;;;;;4943849;28;20279;-78
2022/04/01 09:03:44;;;;;;;4.25;2.45;;;7.40;1.00;;;;;;4941713;28;20233;-76
2022/04/01 09:06:13;;;;;;;5.78;2.70;;;7.50;1.00;;;;;;4942063;28;20239;-77
2022/04/01 09:08:44;;;;;;;7.80;2.55;;;7.60;1.00;;;;;;4947160;28;20256;-76
2022/04/01 09:11:21;;;;;;;5.97;3.28;;;7.80;1.00;;;;;;4947927;28;20248;-77
2022/04/01 09:13:50;;;;;;;5.10;2.83;;;8.00;1.00;;;;;;4938261;28;20225;-77
2022/04/01 09:16:27;;;;;;;6.95;2.70;;;8.20;1.00;;;;;;4951325;28;20339;-76
2022/04/01 09:19:01;;;;;;;11.23;3.83;;;8.20;1.00;;;;;;4938964;28;20310;-76
2022/04/01 09:21:33;;;;;;;7.85;3.03;;;8.10;1.00;;;;;;4937622;28;20475;-77
2022/04/01 09:24:03;;;;;;;6.10;3.35;;;8.40;1.00;;;;;;4945236;28;20276;-76
2022/04/01 09:26:31;;;;;;;6.50;2.70;;;8.60;1.00;;;;;;4941572;28;20245;-78
2022/04/01 09:28:59;;;;;;;5.97;2.60;;;8.90;1.00;;;;;;4941817;28;20252;-76
2022/04/01 09:31:31;;;;;;;4.45;3.40;;;8.90;1.00;;;;;;4945551;28;20232;-78
2022/04/01 09:33:59;;;;;;;4.03;2.42;;;9.00;1.00;;;;;;4948421;28;20245;-77
2022/04/01 09:36:29;;;;;;;7.80;2.92;;;9.30;1.00;;;;;;4949482;28;20280;-76
2022/04/01 09:39:05;;;;;;;9.70;2.88;;;9.50;1.00;;;;;;4935652;28;20249;-77
2022/04/01 09:41:35;;;;;;;7.30;2.85;;;9.40;1.00;;;;;;4935797;28;20260;-76
2022/04/01 09:44:04;;;;;;;4.57;2.45;;;9.30;1.00;;;;;;4955540;28;21569;-75
2022/04/01 09:46:31;;;;;;;5.55;3.13;;;9.30;1.00;;;;;;4959892;28;20316;-77
2022/04/01 09:49:03;;;;;;;5.93;3.63;;;9.60;1.00;;;;;;4941309;28;20443;-77
2022/04/01 09:51:31;;;;;;;5.15;3.00;;;10.00;1.00;;;;;;4936897;28;20505;-78
2022/04/01 09:54:04;;;;;;;4.40;2.55;;;10.40;1.00;;;;;;4947155;28;20305;-76
2022/04/01 09:56:43;;;;;;;6.30;3.23;;;10.40;1.00;;;;;;4931621;28;20328;-76
2022/04/01 09:59:14;;;;;;;5.03;3.13;;;10.40;1.00;;;;;;4954127;28;20444;-77
2022/04/01 10:01:44;;;;;;;6.00;3.30;;;10.60;1.00;;;;;;4933181;28;20243;-77
2022/04/01 10:04:14;;;;;;;6.67;3.87;;;10.90;1.00;;;;;;4938086;28;20420;-76
2022/04/01 10:06:42;;;;;;;11.63;2.83;;;11.10;1.00;;;;;;4948573;28;20568;-76
2022/04/01 10:09:13;;;;;;;5.77;3.10;;;11.20;1.00;;;;;;4952626;28;20500;-76
2022/04/01 10:11:43;;;;;;;4.90;3.73;;;11.40;1.00;;;;;;4948785;28;20433;-75
2022/04/01 10:14:13;;;;;;;9.20;3.30;;;11.70;1.00;;;;;;4943772;28;20425;-76
2022/04/01 10:16:43;;;;;;;5.40;3.50;;;11.70;1.00;;;;;;4953361;28;20477;-76
2022/04/01 10:19:32;;;;;;;4.23;2.70;;;11.80;1.00;;;;;;4949657;28;20417;-76
2022/04/01 10:22:01;;;;;;;5.30;3.50;;;12.20;1.00;;;;;;4948836;28;21863;-76
2022/04/01 10:24:42;;;;;;;8.00;3.03;;;12.90;1.00;;;;;;4946113;28;20472;-75
2022/04/01 10:27:21;;;;;;;5.27;3.20;;;13.40;1.00;;;;;;4953610;28;20476;-75
2022/04/01 10:29:48;;;;;;;50.57;8.67;;;13.80;1.00;;;;;;4950999;28;20495;-75
2022/04/01 10:32:30;;;;;;;6.20;3.30;;;13.90;1.00;;;;;;4959681;23;20988;-75
2022/04/01 10:35:04;;;;;;;33.33;7.57;;;14.10;1.00;;;;;;4934795;28;20493;-77
2022/04/01 10:37:33;;;;;;;7.13;3.83;;;14.40;1.00;;;;;;4924484;28;20544;-75
2022/04/01 10:40:09;;;;;;;7.37;3.50;;;14.70;1.00;;;;;;4933743;28;20422;-76
2022/04/01 10:42:42;;;;;;;9.63;3.40;;;15.30;1.00;;;;;;4924654;28;20461;-76
2022/04/01 10:45:24;;;;;;;4.63;3.63;;;16.20;1.00;;;;;;4934037;28;20513;-77
2022/04/01 10:53:59;;;;;;;9.30;3.97;;;17.70;1.00;;;;;;4955880;28;20513;-75
2022/04/01 10:56:33;;;;;;;7.70;4.00;;;17.70;1.00;;;;;;4960191;28;20489;-76
2022/04/01 10:59:05;;;;;;;12.03;4.60;;;17.70;1.00;;;;;;4955894;28;21263;-77
2022/04/01 11:01:32;;;;;;;4.30;3.10;;;17.00;1.00;;;;;;4963704;28;20739;-76
2022/04/01 11:04:03;;;;;;;5.23;2.87;;;16.40;1.00;;;;;;4953334;28;20488;-76
2022/04/01 11:06:52;;;;;;;3.70;2.73;;;16.60;1.00;;;;;;4957605;28;20414;-77
2022/04/01 11:09:34;;;;;;;7.03;3.20;;;17.00;1.00;;;;;;4961582;28;20485;-77
2022/04/01 11:12:42;;;;;;;7.67;3.40;;;17.40;1.00;;;;;;4972318;28;20493;-76
2022/04/01 11:15:12;;;;;;;6.37;3.33;;;17.50;1.00;;;;;;4954430;28;20535;-76
2022/04/01 11:18:04;;;;;;;9.67;3.37;;;18.00;1.00;;;;;;4955456;28;20440;-77
2022/04/01 11:20:35;;;;;;;4.57;3.07;;;17.90;1.00;;;;;;4959583;28;20555;-77
2022/04/01 11:23:10;;;;;;;5.27;3.13;;;17.90;1.00;;;;;;4943286;28;20497;-78
2022/04/01 11:25:55;;;;;;;7.53;3.80;;;18.20;1.00;;;;;;4958489;28;20614;-77
2022/04/01 11:28:26;;;;;;;8.60;3.43;;;18.30;1.00;;;;;;4961755;28;20546;-76
2022/04/01 11:31:08;;;;;;;7.20;3.50;;;18.00;1.00;;;;;;4957337;28;20584;-76
2022/04/01 11:33:34;;;;;;;3.43;2.90;;;17.60;1.00;;;;;;4945903;28;20469;-76
2022/04/01 11:36:04;;;;;;;7.10;3.27;;;17.40;1.00;;;;;;4952761;28;20433;-76
2022/04/01 11:38:36;;;;;;;8.90;3.50;;;17.80;1.00;;;;;;4952998;28;20479;-76
2022/04/01 11:41:04;;;;;;;11.00;5.40;;;18.30;1.00;;;;;;4958181;28;20906;-76
2022/04/01 11:43:33;;;;;;;4.30;3.23;;;18.30;1.00;;;;;;4949663;28;21417;-76
2022/04/01 11:46:04;;;;;;;3.47;2.30;;;18.60;1.00;;;;;;4945711;28;20460;-76
2022/04/01 11:48:35;;;;;;;6.97;3.00;;;18.50;1.00;;;;;;4959144;28;20413;-75
2022/04/01 11:51:05;;;;;;;6.73;4.30;;;18.30;1.00;;;;;;4955256;28;20556;-76
2022/04/01 11:53:38;;;;;;;9.43;3.63;;;18.30;1.00;;;;;;4951662;28;21126;-76
2022/04/01 11:56:10;;;;;;;7.17;4.00;;;18.60;1.00;;;;;;4941215;28;20514;-75
2022/04/01 11:58:57;;;;;;;11.07;3.60;;;18.60;1.00;;;;;;4939835;28;20575;-77
2022/04/01 12:01:27;;;;;;;11.57;3.13;;;18.10;1.00;;;;;;4921142;28;20561;-76
2022/04/01 12:04:11;;;;;;;6.27;2.80;;;17.50;1.00;;;;;;4954696;28;20520;-76
2022/04/01 12:09:46;;;;;;;5.50;3.13;;;18.00;1.00;;;;;;4906414;29;20476;-75
2022/04/01 12:12:13;;;;;;;6.33;4.07;;;17.80;1.00;;;;;;4904893;29;20545;-77
2022/04/01 12:14:40;;;;;;;10.83;4.60;;;18.60;1.00;;;;;;4918281;28;20525;-75
2022/04/01 12:17:10;;;;;;;7.17;3.50;;;19.50;1.00;;;;;;4955050;28;20464;-76
2022/04/01 12:19:36;;;;;;;5.00;2.83;;;20.10;1.00;;;;;;4955645;28;20440;-77
2022/04/01 12:22:06;;;;;;;10.40;3.57;;;20.00;1.00;;;;;;4954519;28;20591;-76
2022/04/01 12:24:35;;;;;;;8.93;3.20;;;20.00;1.00;;;;;;4956108;28;20489;-78
2022/04/01 12:27:05;;;;;;;5.00;2.77;;;20.20;1.00;;;;;;4954980;28;20484;-76
2022/04/01 12:29:31;;;;;;;9.27;2.87;;;20.60;1.00;;;;;;4957630;28;20599;-76
2022/04/01 12:32:01;;;;;;;7.70;4.30;;;21.20;1.00;;;;;;4953037;28;20469;-77
2022/04/01 12:34:29;;;;;;;6.53;3.10;;;20.90;1.00;;;;;;4959358;28;20484;-77
2022/04/01 12:37:00;;;;;;;5.00;2.87;;;20.40;1.00;;;;;;4969478;28;20457;-77
2022/04/01 12:39:28;;;;;;;7.17;3.47;;;19.90;1.00;;;;;;4985310;28;20671;-77
2022/04/01 12:41:57;;;;;;;7.47;4.00;;;19.50;1.00;;;;;;4956212;28;20539;-76
2022/04/01 12:44:28;;;;;;;3.60;2.60;;;19.40;1.00;;;;;;4956340;28;20471;-76
2022/04/01 12:46:58;;;;;;;7.47;3.40;;;18.90;1.00;;;;;;4954646;28;20486;-77
2022/04/01 12:49:26;;;;;;;5.00;3.00;;;18.80;1.00;;;;;;4954094;28;20489;-77
2022/04/01 12:51:55;;;;;;;7.27;3.20;;;18.20;1.00;;;;;;4965041;28;20483;-78
2022/04/01 12:54:28;;;;;;;6.97;4.17;;;17.10;1.00;;;;;;4954141;28;20456;-77
2022/04/01 12:56:56;;;;;;;10.03;3.83;;;16.30;1.00;;;;;;4951646;28;20433;-77
2022/04/01 12:59:24;;;;;;;7.73;3.37;;;15.50;1.00;;;;;;4959720;28;20449;-76
2022/04/01 13:02:01;;;;;;;6.20;4.00;;;15.40;1.00;;;;;;4949333;28;20670;-76
2022/04/01 13:04:28;;;;;;;6.07;5.47;;;16.00;1.00;;;;;;4958627;28;21262;-77
2022/04/01 13:07:10;;;;;;;7.70;3.87;;;16.70;1.00;;;;;;4960114;28;20425;-76
2022/04/01 13:09:53;;;;;;;4.93;3.30;;;17.50;1.00;;;;;;4961758;28;20509;-76
2022/04/01 13:12:21;;;;;;;7.00;2.70;;;17.60;1.00;;;;;;4959899;28;20490;-77
2022/04/01 13:14:59;;;;;;;6.23;3.37;;;17.40;1.00;;;;;;4956045;28;20585;-77
2022/04/01 13:17:27;;;;;;;5.90;3.67;;;17.20;1.00;;;;;;4966853;28;20467;-77
2022/04/01 13:19:54;;;;;;;7.00;3.40;;;17.00;1.00;;;;;;4957802;28;20468;-77
2022/04/01 13:22:21;;;;;;;10.90;3.87;;;16.40;1.00;;;;;;4963144;28;20477;-77
2022/04/01 13:24:50;;;;;;;9.37;4.70;;;16.20;1.00;;;;;;4960509;28;21308;-76
2022/04/01 13:27:19;;;;;;;6.60;3.40;;;16.40;1.00;;;;;;4970396;28;20440;-77
2022/04/01 13:29:47;;;;;;;9.80;3.73;;;16.60;1.00;;;;;;4971991;28;20441;-77
2022/04/01 13:32:15;;;;;;;3.90;2.60;;;16.90;1.00;;;;;;4969599;28;20441;-77
2022/04/01 13:34:43;;;;;;;4.50;2.90;;;17.20;1.00;;;;;;4968980;28;20441;-77
2022/04/01 13:37:11;;;;;;;13.37;3.43;;;17.30;1.00;;;;;;4970049;28;21249;-78
2022/04/01 13:39:39;;;;;;;4.73;3.73;;;16.90;1.00;;;;;;4965394;28;20450;-77
2022/04/01 13:42:06;;;;;;;3.90;2.63;;;16.30;1.00;;;;;;4966094;28;20899;-77
2022/04/01 13:44:33;;;;;;;6.83;3.47;;;16.00;1.00;;;;;;4962880;28;20508;-76
2022/04/01 13:47:01;;;;;;;12.63;3.53;;;15.40;1.00;;;;;;4958371;28;21275;-75
2022/04/01 13:49:27;;;;;;;9.37;4.17;;;15.30;1.00;;;;;;4961522;28;20544;-77